sensor_id;sensor_type;location;lat;lon;timestamp;P1;durP1;ratioP1;P2;durP2;ratioP2
43843;SDS011;29497;48.046;7.864;2022-10-22T13:50:41;2.13;;;1.40;;
43843;SDS011;29497;48.046;7.864;2022-10-22T13:53:08;2.53;;;1.30;;
43843;SDS011;29497;48.046;7.864;2022-10-22T13:55:42;2.90;;;1.20;;
43843;SDS011;29497;48.046;7.864;2022-10-22T13:58:10;3.97;;;1.40;;
43843;SDS011;29497;48.046;7.864;2022-10-22T14:00:38;2.57;;;1.40;;
43843;SDS011;29497;48.046;7.864;2022-10-22T14:03:08;4.20;;;1.60;;
43843;SDS011;29497;48.046;7.864;2022-10-22T14:05:36;2.20;;;1.40;;
43843;SDS011;29497;48.046;7.864;2022-10-22T14:08:07;6.80;;;1.40;;
43843;SDS011;29497;48.046;7.864;2022-10-22T14:10:37;5.90;;;1.80;;
43843;SDS011;29497;48.046;7.864;2022-10-22T14:13:04;4.47;;;1.47;;
43843;SDS011;29497;48.046;7.864;2022-10-22T14:15:31;4.10;;;1.73;;
43843;SDS011;29497;48.046;7.864;2022-10-22T14:17:58;4.03;;;1.50;;
43843;SDS011;29497;48.046;7.864;2022-10-22T14:20:27;4.67;;;1.40;;
43843;SDS011;29497;48.046;7.864;2022-10-22T14:22:56;10.47;;;1.70;;
43843;SDS011;29497;48.046;7.864;2022-10-22T14:25:28;4.17;;;1.50;;
43843;SDS011;29497;48.046;7.864;2022-10-22T14:27:55;3.40;;;1.60;;
43843;SDS011;29497;48.046;7.864;2022-10-22T14:30:23;5.70;;;1.43;;
43843;SDS011;29497;48.046;7.864;2022-10-22T14:32:50;5.07;;;1.40;;
43843;SDS011;29497;48.046;7.864;2022-10-22T14:35:18;5.77;;;1.70;;
43843;SDS011;29497;48.046;7.864;2022-10-22T14:37:46;2.80;;;1.60;;
43843;SDS011;29497;48.046;7.864;2022-10-22T14:40:14;4.27;;;1.50;;
43843;SDS011;29497;48.046;7.864;2022-10-22T14:42:44;4.80;;;1.70;;
43843;SDS011;29497;48.046;7.864;2022-10-22T14:45:13;3.13;;;1.67;;
43843;SDS011;29497;48.046;7.864;2022-10-22T14:47:42;6.17;;;1.40;;
43843;SDS011;29497;48.046;7.864;2022-10-22T14:50:09;4.73;;;1.80;;
43843;SDS011;29497;48.046;7.864;2022-10-22T14:52:36;3.03;;;1.57;;
43843;SDS011;29497;48.046;7.864;2022-10-22T14:55:03;4.03;;;1.60;;
43843;SDS011;29497;48.046;7.864;2022-10-22T14:57:30;3.00;;;1.50;;
43843;SDS011;29497;48.046;7.864;2022-10-22T14:59:58;3.83;;;1.60;;
43843;SDS011;29497;48.046;7.864;2022-10-22T15:02:24;3.13;;;1.63;;
43843;SDS011;29497;48.046;7.864;2022-10-22T15:04:51;5.73;;;1.60;;
43843;SDS011;29497;48.046;7.864;2022-10-22T15:07:17;3.80;;;1.50;;
43843;SDS011;29497;48.046;7.864;2022-10-22T15:09:44;4.50;;;1.60;;
43843;SDS011;29497;48.046;7.864;2022-10-22T15:12:10;4.37;;;1.57;;
43843;SDS011;29497;48.046;7.864;2022-10-22T15:14:37;5.80;;;1.83;;
43843;SDS011;29497;48.046;7.864;2022-10-22T15:17:05;4.07;;;1.57;;
43843;SDS011;29497;48.046;7.864;2022-10-22T15:19:31;2.80;;;1.73;;
43843;SDS011;29497;48.046;7.864;2022-10-22T15:21:58;7.70;;;2.00;;
43843;SDS011;29497;48.046;7.864;2022-10-22T15:24:24;6.27;;;2.23;;
43843;SDS011;29497;48.046;7.864;2022-10-22T15:26:51;5.43;;;2.87;;
43843;SDS011;29497;48.046;7.864;2022-10-22T15:29:18;5.70;;;1.83;;
43843;SDS011;29497;48.046;7.864;2022-10-22T15:31:45;7.57;;;1.90;;
43843;SDS011;29497;48.046;7.864;2022-10-22T15:34:18;8.47;;;1.80;;
43843;SDS011;29497;48.046;7.864;2022-10-22T15:36:45;5.40;;;2.00;;
43843;SDS011;29497;48.046;7.864;2022-10-22T15:39:12;5.43;;;1.80;;
43843;SDS011;29497;48.046;7.864;2022-10-22T15:41:39;4.30;;;1.57;;
43843;SDS011;29497;48.046;7.864;2022-10-22T15:44:05;5.43;;;2.10;;
43843;SDS011;29497;48.046;7.864;2022-10-22T15:46:33;3.90;;;2.10;;
43843;SDS011;29497;48.046;7.864;2022-10-22T15:49:00;5.60;;;1.63;;
43843;SDS011;29497;48.046;7.864;2022-10-22T15:51:28;4.27;;;2.27;;
43843;SDS011;29497;48.046;7.864;2022-10-22T15:53:55;5.17;;;1.70;;
43843;SDS011;29497;48.046;7.864;2022-10-22T15:56:23;4.47;;;2.03;;
43843;SDS011;29497;48.046;7.864;2022-10-22T15:58:51;2.83;;;1.93;;
43843;SDS011;29497;48.046;7.864;2022-10-22T16:01:19;6.43;;;1.80;;
43843;SDS011;29497;48.046;7.864;2022-10-22T16:03:45;5.17;;;1.90;;
43843;SDS011;29497;48.046;7.864;2022-10-22T16:06:12;5.13;;;2.20;;
43843;SDS011;29497;48.046;7.864;2022-10-22T16:08:40;5.93;;;2.33;;
43843;SDS011;29497;48.046;7.864;2022-10-22T16:11:06;5.40;;;2.20;;
43843;SDS011;29497;48.046;7.864;2022-10-22T16:13:33;8.93;;;2.30;;
43843;SDS011;29497;48.046;7.864;2022-10-22T16:16:03;7.17;;;2.23;;
43843;SDS011;29497;48.046;7.864;2022-10-22T16:18:30;6.67;;;1.97;;
43843;SDS011;29497;48.046;7.864;2022-10-22T16:20:57;6.80;;;2.50;;
43843;SDS011;29497;48.046;7.864;2022-10-22T16:23:24;12.30;;;2.40;;
43843;SDS011;29497;48.046;7.864;2022-10-22T16:25:51;6.40;;;2.30;;
43843;SDS011;29497;48.046;7.864;2022-10-22T16:28:18;8.03;;;4.70;;
43843;SDS011;29497;48.046;7.864;2022-10-22T16:30:44;8.13;;;4.37;;
43843;SDS011;29497;48.046;7.864;2022-10-22T16:33:11;6.77;;;4.43;;
43843;SDS011;29497;48.046;7.864;2022-10-22T16:35:38;11.90;;;5.00;;
43843;SDS011;29497;48.046;7.864;2022-10-22T16:38:06;21.40;;;12.97;;
43843;SDS011;29497;48.046;7.864;2022-10-22T16:40:32;24.10;;;11.60;;
43843;SDS011;29497;48.046;7.864;2022-10-22T16:43:00;34.33;;;17.37;;
43843;SDS011;29497;48.046;7.864;2022-10-22T16:45:27;25.13;;;13.90;;
43843;SDS011;29497;48.046;7.864;2022-10-22T16:47:53;25.13;;;11.87;;
43843;SDS011;29497;48.046;7.864;2022-10-22T16:50:20;13.70;;;8.03;;
43843;SDS011;29497;48.046;7.864;2022-10-22T16:52:46;10.33;;;5.07;;
43843;SDS011;29497;48.046;7.864;2022-10-22T16:55:14;10.90;;;5.37;;
43843;SDS011;29497;48.046;7.864;2022-10-22T16:57:41;14.73;;;6.73;;
43843;SDS011;29497;48.046;7.864;2022-10-22T17:00:10;9.43;;;4.30;;
43843;SDS011;29497;48.046;7.864;2022-10-22T17:02:37;5.57;;;3.00;;
43843;SDS011;29497;48.046;7.864;2022-10-22T17:05:04;7.30;;;3.73;;
43843;SDS011;29497;48.046;7.864;2022-10-22T17:07:31;7.00;;;3.60;;
43843;SDS011;29497;48.046;7.864;2022-10-22T17:09:58;9.47;;;3.37;;
43843;SDS011;29497;48.046;7.864;2022-10-22T17:12:25;8.90;;;3.90;;
43843;SDS011;29497;48.046;7.864;2022-10-22T17:14:51;5.00;;;3.50;;
43843;SDS011;29497;48.046;7.864;2022-10-22T17:17:19;9.50;;;3.57;;
43843;SDS011;29497;48.046;7.864;2022-10-22T17:19:45;9.00;;;2.97;;
43843;SDS011;29497;48.046;7.864;2022-10-22T17:22:12;5.70;;;2.97;;
43843;SDS011;29497;48.046;7.864;2022-10-22T17:24:38;6.27;;;2.80;;
43843;SDS011;29497;48.046;7.864;2022-10-22T17:27:07;9.40;;;3.20;;
43843;SDS011;29497;48.046;7.864;2022-10-22T17:29:34;5.47;;;3.10;;
43843;SDS011;29497;48.046;7.864;2022-10-22T17:32:01;7.97;;;2.67;;
43843;SDS011;29497;48.046;7.864;2022-10-22T17:34:28;7.73;;;3.03;;
43843;SDS011;29497;48.046;7.864;2022-10-22T17:36:57;8.63;;;2.90;;
43843;SDS011;29497;48.046;7.864;2022-10-22T17:39:24;5.87;;;2.80;;
43843;SDS011;29497;48.046;7.864;2022-10-22T17:41:51;9.90;;;3.00;;
43843;SDS011;29497;48.046;7.864;2022-10-22T17:44:18;7.07;;;3.07;;
43843;SDS011;29497;48.046;7.864;2022-10-22T17:46:44;4.50;;;2.90;;
43843;SDS011;29497;48.046;7.864;2022-10-22T17:49:14;7.23;;;2.70;;
43843;SDS011;29497;48.046;7.864;2022-10-22T17:51:43;6.23;;;2.97;;
43843;SDS011;29497;48.046;7.864;2022-10-22T17:54:10;5.97;;;3.07;;
43843;SDS011;29497;48.046;7.864;2022-10-22T17:56:37;6.73;;;2.80;;
43843;SDS011;29497;48.046;7.864;2022-10-22T17:59:04;16.47;;;3.27;;
43843;SDS011;29497;48.046;7.864;2022-10-22T18:01:32;6.70;;;2.60;;
43843;SDS011;29497;48.046;7.864;2022-10-22T18:04:00;5.07;;;2.60;;
43843;SDS011;29497;48.046;7.864;2022-10-22T18:06:28;8.90;;;3.10;;
43843;SDS011;29497;48.046;7.864;2022-10-22T18:08:57;6.13;;;2.70;;
43843;SDS011;29497;48.046;7.864;2022-10-22T18:11:24;10.87;;;3.10;;
43843;SDS011;29497;48.046;7.864;2022-10-22T18:13:53;6.07;;;2.67;;
43843;SDS011;29497;48.046;7.864;2022-10-22T18:16:20;4.50;;;2.40;;
43843;SDS011;29497;48.046;7.864;2022-10-22T18:18:47;7.90;;;2.60;;
43843;SDS011;29497;48.046;7.864;2022-10-22T18:21:15;8.53;;;2.40;;
43843;SDS011;29497;48.046;7.864;2022-10-22T18:23:42;6.90;;;2.80;;
43843;SDS011;29497;48.046;7.864;2022-10-22T18:26:10;6.63;;;2.40;;
43843;SDS011;29497;48.046;7.864;2022-10-22T18:28:37;11.40;;;3.23;;
43843;SDS011;29497;48.046;7.864;2022-10-22T18:31:04;4.87;;;2.20;;
43843;SDS011;29497;48.046;7.864;2022-10-22T18:33:32;4.40;;;2.10;;
43843;SDS011;29497;48.046;7.864;2022-10-22T18:36:02;5.20;;;2.30;;
43843;SDS011;29497;48.046;7.864;2022-10-22T18:38:29;5.90;;;2.40;;
43843;SDS011;29497;48.046;7.864;2022-10-22T18:40:56;6.43;;;2.50;;
43843;SDS011;29497;48.046;7.864;2022-10-22T18:43:23;8.80;;;2.33;;
43843;SDS011;29497;48.046;7.864;2022-10-22T18:45:50;8.50;;;2.53;;
43843;SDS011;29497;48.046;7.864;2022-10-22T18:48:17;7.03;;;2.50;;
43843;SDS011;29497;48.046;7.864;2022-10-22T18:50:47;7.13;;;2.40;;
43843;SDS011;29497;48.046;7.864;2022-10-22T18:53:24;5.13;;;2.40;;
43843;SDS011;29497;48.046;7.864;2022-10-22T18:55:51;26.10;;;2.80;;
43843;SDS011;29497;48.046;7.864;2022-10-22T18:58:17;8.03;;;2.30;;
43843;SDS011;29497;48.046;7.864;2022-10-22T19:00:45;13.67;;;2.67;;
43843;SDS011;29497;48.046;7.864;2022-10-22T19:03:12;11.87;;;2.80;;
43843;SDS011;29497;48.046;7.864;2022-10-22T19:05:42;5.83;;;2.43;;
43843;SDS011;29497;48.046;7.864;2022-10-22T19:08:10;11.60;;;2.40;;
43843;SDS011;29497;48.046;7.864;2022-10-22T19:10:37;10.17;;;2.60;;
43843;SDS011;29497;48.046;7.864;2022-10-22T19:13:03;8.30;;;2.63;;
43843;SDS011;29497;48.046;7.864;2022-10-22T19:15:30;7.93;;;2.47;;
43843;SDS011;29497;48.046;7.864;2022-10-22T19:17:58;8.87;;;2.30;;
43843;SDS011;29497;48.046;7.864;2022-10-22T19:20:24;10.37;;;2.30;;
43843;SDS011;29497;48.046;7.864;2022-10-22T19:22:51;3.77;;;2.30;;
43843;SDS011;29497;48.046;7.864;2022-10-22T19:25:20;5.63;;;2.40;;
43843;SDS011;29497;48.046;7.864;2022-10-22T19:27:46;7.00;;;2.37;;
43843;SDS011;29497;48.046;7.864;2022-10-22T19:30:13;5.97;;;2.30;;
43843;SDS011;29497;48.046;7.864;2022-10-22T19:32:41;7.00;;;2.63;;
43843;SDS011;29497;48.046;7.864;2022-10-22T19:35:09;8.20;;;3.00;;
43843;SDS011;29497;48.046;7.864;2022-10-22T19:37:35;7.83;;;2.33;;
43843;SDS011;29497;48.046;7.864;2022-10-22T19:40:03;7.40;;;2.37;;
43843;SDS011;29497;48.046;7.864;2022-10-22T19:42:31;4.70;;;2.20;;
43843;SDS011;29497;48.046;7.864;2022-10-22T19:44:57;5.83;;;2.07;;
43843;SDS011;29497;48.046;7.864;2022-10-22T19:47:24;7.93;;;2.30;;
43843;SDS011;29497;48.046;7.864;2022-10-22T19:49:52;5.40;;;2.10;;
43843;SDS011;29497;48.046;7.864;2022-10-22T19:52:20;4.23;;;2.20;;
43843;SDS011;29497;48.046;7.864;2022-10-22T19:54:46;6.27;;;2.10;;
43843;SDS011;29497;48.046;7.864;2022-10-22T19:57:13;7.70;;;2.10;;
43843;SDS011;29497;48.046;7.864;2022-10-22T19:59:42;7.73;;;2.10;;
43843;SDS011;29497;48.046;7.864;2022-10-22T20:02:09;7.63;;;1.93;;
43843;SDS011;29497;48.046;7.864;2022-10-22T20:04:38;5.27;;;1.87;;
43843;SDS011;29497;48.046;7.864;2022-10-22T20:07:05;7.97;;;2.13;;
43843;SDS011;29497;48.046;7.864;2022-10-22T20:09:32;4.20;;;1.83;;
43843;SDS011;29497;48.046;7.864;2022-10-22T20:11:59;7.43;;;2.20;;
43843;SDS011;29497;48.046;7.864;2022-10-22T20:14:25;4.70;;;2.00;;
43843;SDS011;29497;48.046;7.864;2022-10-22T20:16:52;4.83;;;2.13;;
43843;SDS011;29497;48.046;7.864;2022-10-22T20:19:19;5.10;;;1.97;;
43843;SDS011;29497;48.046;7.864;2022-10-22T20:21:45;8.60;;;2.40;;
43843;SDS011;29497;48.046;7.864;2022-10-22T20:24:14;4.03;;;1.90;;
43843;SDS011;29497;48.046;7.864;2022-10-22T20:26:43;3.40;;;1.80;;
43843;SDS011;29497;48.046;7.864;2022-10-22T20:29:10;3.23;;;1.90;;
43843;SDS011;29497;48.046;7.864;2022-10-22T20:31:38;6.60;;;2.47;;
43843;SDS011;29497;48.046;7.864;2022-10-22T20:34:05;5.83;;;2.20;;
43843;SDS011;29497;48.046;7.864;2022-10-22T20:36:32;4.87;;;1.90;;
43843;SDS011;29497;48.046;7.864;2022-10-22T20:38:59;5.10;;;1.93;;
43843;SDS011;29497;48.046;7.864;2022-10-22T20:41:28;4.93;;;2.27;;
43843;SDS011;29497;48.046;7.864;2022-10-22T20:43:57;4.93;;;2.33;;
43843;SDS011;29497;48.046;7.864;2022-10-22T20:46:24;4.27;;;2.20;;
43843;SDS011;29497;48.046;7.864;2022-10-22T20:48:53;3.67;;;1.93;;
43843;SDS011;29497;48.046;7.864;2022-10-22T20:51:22;5.47;;;2.10;;
43843;SDS011;29497;48.046;7.864;2022-10-22T20:53:48;4.63;;;2.43;;
43843;SDS011;29497;48.046;7.864;2022-10-22T20:56:15;5.90;;;2.30;;
43843;SDS011;29497;48.046;7.864;2022-10-22T20:58:43;4.63;;;2.10;;
43843;SDS011;29497;48.046;7.864;2022-10-22T21:01:13;3.87;;;2.10;;
43843;SDS011;29497;48.046;7.864;2022-10-22T21:03:45;3.80;;;2.30;;
43843;SDS011;29497;48.046;7.864;2022-10-22T21:06:12;6.00;;;2.50;;
43843;SDS011;29497;48.046;7.864;2022-10-22T21:08:39;5.00;;;2.20;;
43843;SDS011;29497;48.046;7.864;2022-10-22T21:11:05;4.63;;;2.10;;
43843;SDS011;29497;48.046;7.864;2022-10-22T21:13:32;4.03;;;2.40;;
43843;SDS011;29497;48.046;7.864;2022-10-22T21:16:05;4.47;;;2.30;;
43843;SDS011;29497;48.046;7.864;2022-10-22T21:18:33;4.47;;;2.53;;
43843;SDS011;29497;48.046;7.864;2022-10-22T21:21:00;4.60;;;2.03;;
43843;SDS011;29497;48.046;7.864;2022-10-22T21:23:28;5.43;;;2.30;;
43843;SDS011;29497;48.046;7.864;2022-10-22T21:25:54;5.37;;;2.50;;
43843;SDS011;29497;48.046;7.864;2022-10-22T21:28:22;4.30;;;2.20;;
43843;SDS011;29497;48.046;7.864;2022-10-22T21:30:49;8.03;;;2.37;;
43843;SDS011;29497;48.046;7.864;2022-10-22T21:33:15;5.33;;;2.33;;
43843;SDS011;29497;48.046;7.864;2022-10-22T21:35:49;3.97;;;2.17;;
43843;SDS011;29497;48.046;7.864;2022-10-22T21:38:17;3.50;;;2.47;;
43843;SDS011;29497;48.046;7.864;2022-10-22T21:40:44;5.97;;;2.30;;
43843;SDS011;29497;48.046;7.864;2022-10-22T21:43:11;4.50;;;2.20;;
43843;SDS011;29497;48.046;7.864;2022-10-22T21:45:37;5.33;;;2.30;;
43843;SDS011;29497;48.046;7.864;2022-10-22T21:48:04;4.13;;;2.10;;
43843;SDS011;29497;48.046;7.864;2022-10-22T21:50:31;4.77;;;2.20;;
43843;SDS011;29497;48.046;7.864;2022-10-22T21:52:59;5.47;;;2.20;;
43843;SDS011;29497;48.046;7.864;2022-10-22T21:55:25;7.30;;;2.37;;
43843;SDS011;29497;48.046;7.864;2022-10-22T21:57:52;3.37;;;2.20;;
43843;SDS011;29497;48.046;7.864;2022-10-22T22:00:19;4.10;;;2.20;;
43843;SDS011;29497;48.046;7.864;2022-10-22T22:02:46;5.00;;;2.03;;
43843;SDS011;29497;48.046;7.864;2022-10-22T22:05:13;5.90;;;2.30;;
43843;SDS011;29497;48.046;7.864;2022-10-22T22:07:41;4.87;;;2.27;;
43843;SDS011;29497;48.046;7.864;2022-10-22T22:10:09;4.27;;;2.30;;
43843;SDS011;29497;48.046;7.864;2022-10-22T22:12:35;5.03;;;2.20;;
43843;SDS011;29497;48.046;7.864;2022-10-22T22:15:02;9.17;;;2.33;;
43843;SDS011;29497;48.046;7.864;2022-10-22T22:17:29;4.67;;;2.20;;
43843;SDS011;29497;48.046;7.864;2022-10-22T22:19:56;3.53;;;2.00;;
43843;SDS011;29497;48.046;7.864;2022-10-22T22:22:22;4.33;;;2.13;;
43843;SDS011;29497;48.046;7.864;2022-10-22T22:24:49;3.37;;;2.00;;
43843;SDS011;29497;48.046;7.864;2022-10-22T22:27:17;3.77;;;2.20;;
43843;SDS011;29497;48.046;7.864;2022-10-22T22:29:44;2.77;;;1.83;;
43843;SDS011;29497;48.046;7.864;2022-10-22T22:32:10;3.83;;;2.27;;
43843;SDS011;29497;48.046;7.864;2022-10-22T22:34:38;3.77;;;2.00;;
43843;SDS011;29497;48.046;7.864;2022-10-22T22:37:06;5.70;;;2.10;;
43843;SDS011;29497;48.046;7.864;2022-10-22T22:39:32;5.13;;;2.20;;
43843;SDS011;29497;48.046;7.864;2022-10-22T22:41:59;4.63;;;2.00;;
43843;SDS011;29497;48.046;7.864;2022-10-22T22:44:27;4.00;;;2.10;;
43843;SDS011;29497;48.046;7.864;2022-10-22T22:46:53;4.97;;;2.00;;
43843;SDS011;29497;48.046;7.864;2022-10-22T22:49:20;7.57;;;2.10;;
43843;SDS011;29497;48.046;7.864;2022-10-22T22:51:47;4.83;;;2.00;;
43843;SDS011;29497;48.046;7.864;2022-10-22T22:54:13;4.17;;;2.10;;
43843;SDS011;29497;48.046;7.864;2022-10-22T22:56:40;3.17;;;1.80;;
43843;SDS011;29497;48.046;7.864;2022-10-22T22:59:06;3.07;;;2.00;;
43843;SDS011;29497;48.046;7.864;2022-10-22T23:01:35;3.80;;;1.87;;
43843;SDS011;29497;48.046;7.864;2022-10-22T23:04:04;7.10;;;1.80;;
43843;SDS011;29497;48.046;7.864;2022-10-22T23:06:32;2.90;;;1.80;;
43843;SDS011;29497;48.046;7.864;2022-10-22T23:09:01;4.03;;;1.93;;
43843;SDS011;29497;48.046;7.864;2022-10-22T23:11:28;3.50;;;1.90;;
43843;SDS011;29497;48.046;7.864;2022-10-22T23:13:56;3.10;;;2.17;;
43843;SDS011;29497;48.046;7.864;2022-10-22T23:16:26;2.70;;;1.83;;
43843;SDS011;29497;48.046;7.864;2022-10-22T23:18:55;4.23;;;2.00;;
43843;SDS011;29497;48.046;7.864;2022-10-22T23:21:23;2.97;;;1.90;;
43843;SDS011;29497;48.046;7.864;2022-10-22T23:23:53;4.57;;;1.70;;
43843;SDS011;29497;48.046;7.864;2022-10-22T23:26:21;3.63;;;2.10;;
43843;SDS011;29497;48.046;7.864;2022-10-22T23:28:49;4.00;;;1.97;;
43843;SDS011;29497;48.046;7.864;2022-10-22T23:31:16;4.27;;;2.00;;
43843;SDS011;29497;48.046;7.864;2022-10-22T23:33:44;4.30;;;1.70;;
43843;SDS011;29497;48.046;7.864;2022-10-22T23:36:13;2.60;;;1.90;;
43843;SDS011;29497;48.046;7.864;2022-10-22T23:38:40;5.17;;;1.93;;
43843;SDS011;29497;48.046;7.864;2022-10-22T23:41:07;2.87;;;1.60;;
43843;SDS011;29497;48.046;7.864;2022-10-22T23:43:34;3.03;;;1.90;;
43843;SDS011;29497;48.046;7.864;2022-10-22T23:46:01;2.63;;;1.50;;
43843;SDS011;29497;48.046;7.864;2022-10-22T23:48:28;8.33;;;1.90;;
43843;SDS011;29497;48.046;7.864;2022-10-22T23:50:55;3.10;;;1.70;;
43843;SDS011;29497;48.046;7.864;2022-10-22T23:53:23;2.97;;;1.50;;
43843;SDS011;29497;48.046;7.864;2022-10-22T23:55:49;3.90;;;1.80;;
43843;SDS011;29497;48.046;7.864;2022-10-22T23:58:16;5.13;;;1.73;;
